Terminal Aerodrome Forecast
Issued by NWS

Home | Current Version | Previous Version | Text Only | Print | Product List | Glossary On
Versions: 1 2 3 4 5 6 7 8 9 10 11 12 13 14 15 16 17 18 19
000
FTUS41 KBTV 172117 AAA
TAFMSS
TAF AMD
KMSS 172117Z 1721/1818 24006KT P6SM VCSH SCT008 OVC020
      TEMPO 1721/1724 2SM -RA BR OVC006
     FM180600 26007KT 3SM BR VCSH SCT020 OVC025
     FM181400 29008KT P6SM SCT025 OVC035=

USA.gov is the U.S. government's official web portal to all federal, state and local government web resources and services.